Time;durP1;ratioP1;P1;durP2;ratioP2;P2;SDS_P1;SDS_P2;PMS_P1;PMS_P2;Temp;Humidity;BMP_temperature;BMP_pressure;BME280_temperature;BME280_humidity;BME280_pressure;Samples;Min_cycle;Max_cycle;Signal;HPM_P1;HPM_P2
2021/11/11 00:02:19;;;;;;;28.23;14.45;;;;;;;2.15;50.44;102154.83;1717665;82;21059;-63
2021/11/11 00:04:47;;;;;;;29.20;14.63;;;;;;;2.09;50.59;102149.98;1719390;82;20904;-62
2021/11/11 00:07:14;;;;;;;30.57;14.00;;;;;;;2.06;50.79;102151.55;1716250;82;20983;-63
2021/11/11 00:09:41;;;;;;;21.33;11.55;;;;;;;2.03;50.92;102150.01;1718487;82;20944;-61
2021/11/11 00:12:08;;;;;;;24.47;11.55;;;;;;;2.02;50.97;102141.70;1718373;82;21119;-63
2021/11/11 00:14:36;;;;;;;24.75;12.10;;;;;;;2.00;51.10;102148.06;1716673;82;20987;-62
2021/11/11 00:17:04;;;;;;;27.50;12.20;;;;;;;1.97;51.19;102146.98;1721688;82;21443;-62
2021/11/11 00:19:30;;;;;;;25.45;11.63;;;;;;;1.94;51.32;102146.73;1720748;82;21497;-62
2021/11/11 00:21:56;;;;;;;22.20;10.78;;;;;;;1.90;51.42;102138.20;1717778;82;20909;-62
2021/11/11 00:24:23;;;;;;;24.52;10.45;;;;;;;1.85;51.52;102136.38;1721224;82;20992;-62
2021/11/11 00:26:50;;;;;;;21.30;10.18;;;;;;;1.83;51.64;102142.76;1718508;82;20992;-62
2021/11/11 00:29:16;;;;;;;18.10;10.18;;;;;;;1.83;51.67;102138.30;1719478;82;21817;-62
2021/11/11 00:31:44;;;;;;;25.48;11.10;;;;;;;1.83;51.74;102129.53;1719594;82;21521;-61
2021/11/11 00:34:10;;;;;;;19.73;10.38;;;;;;;1.83;51.77;102121.60;1718415;82;20987;-64
2021/11/11 00:36:37;;;;;;;20.55;9.70;;;;;;;1.81;51.83;102120.86;1719476;82;20976;-62
2021/11/11 00:39:05;;;;;;;21.17;9.60;;;;;;;1.79;51.91;102120.15;1720728;82;20881;-63
2021/11/11 00:41:33;;;;;;;20.77;8.93;;;;;;;1.78;51.98;102111.35;1719641;82;21524;-62
2021/11/11 00:44:00;;;;;;;17.73;9.23;;;;;;;1.73;52.04;102109.55;1716851;82;20947;-63
2021/11/11 00:46:27;;;;;;;20.70;8.95;;;;;;;1.69;52.17;102104.13;1721317;82;21011;-64
2021/11/11 00:48:53;;;;;;;20.27;8.03;;;;;;;1.70;52.25;102105.83;1719045;82;21391;-63
2021/11/11 00:51:20;;;;;;;15.35;7.50;;;;;;;1.71;52.24;102099.09;1720941;82;21024;-63
2021/11/11 00:53:46;;;;;;;19.77;8.10;;;;;;;1.74;52.22;102094.06;1719607;82;21144;-66
2021/11/11 00:56:13;;;;;;;18.15;7.65;;;;;;;1.74;52.20;102092.25;1719375;82;21079;-67
2021/11/11 00:58:41;;;;;;;15.43;7.62;;;;;;;1.71;52.25;102088.52;1722249;82;21024;-67
2021/11/11 01:01:09;;;;;;;13.88;7.28;;;;;;;1.67;52.33;102080.45;1722747;82;21036;-67
2021/11/11 01:03:40;;;;;;;15.23;6.95;;;;;;;1.66;52.44;102080.08;1723875;82;20924;-67
2021/11/11 01:06:08;;;;;;;14.73;7.78;;;;;;;1.63;52.54;102080.81;1704143;82;21021;-67
2021/11/11 01:08:37;;;;;;;13.65;6.75;;;;;;;1.61;52.65;102081.42;1723660;82;21276;-68
2021/11/11 01:11:05;;;;;;;13.43;6.35;;;;;;;1.58;52.71;102074.55;1722416;81;20937;-68
2021/11/11 01:13:33;;;;;;;13.35;6.45;;;;;;;1.53;52.87;102080.66;1719413;82;21040;-68
2021/11/11 01:16:00;;;;;;;12.05;6.70;;;;;;;1.52;52.94;102078.50;1719311;82;21525;-68
2021/11/11 01:18:28;;;;;;;13.13;6.45;;;;;;;1.51;53.01;102074.66;1718469;82;21502;-68
2021/11/11 01:20:56;;;;;;;12.23;5.60;;;;;;;1.48;53.05;102073.57;1716837;82;21446;-67
2021/11/11 01:23:23;;;;;;;10.78;5.83;;;;;;;1.47;53.22;102069.23;1717924;82;20999;-68
2021/11/11 01:25:51;;;;;;;9.55;6.08;;;;;;;1.47;53.24;102072.70;1720039;82;21107;-68
2021/11/11 01:28:17;;;;;;;11.10;5.95;;;;;;;1.53;53.30;102073.59;1719543;82;20967;-68
2021/11/11 01:30:44;;;;;;;14.13;5.70;;;;;;;1.60;53.28;102073.95;1718210;82;21814;-67
2021/11/11 01:33:19;;;;;;;14.25;5.65;;;;;;;1.67;53.28;102071.69;1717675;82;20944;-68
2021/11/11 01:35:46;;;;;;;11.75;6.10;;;;;;;1.74;53.26;102071.58;1719652;82;20975;-67
2021/11/11 01:38:16;;;;;;;10.75;5.78;;;;;;;1.83;53.05;102069.53;1721283;82;21034;-68
2021/11/11 01:40:43;;;;;;;10.40;5.87;;;;;;;1.84;52.82;102071.23;1718662;82;21031;-68
2021/11/11 01:43:11;;;;;;;12.43;6.80;;;;;;;1.79;52.85;102068.58;1721071;82;21474;-67
2021/11/11 01:45:40;;;;;;;11.68;6.65;;;;;;;1.70;52.92;102076.24;1719637;82;21650;-67
2021/11/11 01:48:12;;;;;;;11.35;5.72;;;;;;;1.60;53.21;102084.52;1719450;82;21004;-66
2021/11/11 01:50:40;;;;;;;12.50;6.12;;;;;;;1.54;53.49;102085.00;1719956;82;21501;-64
2021/11/11 01:53:11;;;;;;;16.35;6.42;;;;;;;1.54;53.65;102081.03;1717428;82;21007;-65
2021/11/11 01:55:42;;;;;;;12.13;6.42;;;;;;;1.54;53.70;102080.54;1716469;82;21157;-65
2021/11/11 01:58:09;;;;;;;12.88;6.55;;;;;;;1.54;53.80;102085.00;1720421;82;20972;-65
2021/11/11 02:00:42;;;;;;;;;;;;;;;1.58;53.86;102085.13;1721715;82;20960;-64
2021/11/11 02:03:10;;;;;;;14.40;6.53;;;;;;;1.62;53.90;102092.33;1717045;81;20148;-65
2021/11/11 02:05:55;;;;;;;11.30;5.92;;;;;;;1.65;53.87;102095.60;1708716;83;20924;-66
2021/11/11 02:08:25;;;;;;;11.75;6.37;;;;;;;1.70;53.91;102091.28;1710489;82;21118;-68
2021/11/11 02:10:54;;;;;;;12.60;6.25;;;;;;;1.71;53.90;102089.01;1695018;82;20965;-67
2021/11/11 02:13:21;;;;;;;12.93;6.08;;;;;;;1.69;53.90;102083.84;1716080;82;20929;-66
2021/11/11 02:15:47;;;;;;;11.22;6.30;;;;;;;1.71;53.99;102085.04;1690109;83;21678;-66
2021/11/11 02:18:15;;;;;;;13.45;6.67;;;;;;;1.76;53.94;102081.55;1708897;83;21553;-66
2021/11/11 02:20:44;;;;;;;11.83;6.40;;;;;;;1.78;53.86;102069.53;1711539;82;21079;-66
2021/11/11 02:23:27;;;;;;;12.43;6.15;;;;;;;1.75;53.71;102060.02;1711705;82;21036;-68
2021/11/11 02:25:59;;;;;;;12.40;5.80;;;;;;;1.68;53.87;102063.63;1709656;82;21000;-66
2021/11/11 02:28:31;;;;;;;14.87;6.58;;;;;;;1.56;54.15;102060.13;1713181;82;20940;-64
2021/11/11 02:30:57;;;;;;;13.13;6.05;;;;;;;1.43;54.48;102059.39;1711607;83;21103;-64
2021/11/11 02:33:35;;;;;;;13.72;6.30;;;;;;;1.34;54.83;102064.89;1712286;82;21158;-64
2021/11/11 02:36:02;;;;;;;10.75;5.87;;;;;;;1.27;55.14;102059.70;1711929;82;20874;-65
2021/11/11 02:38:30;;;;;;;8.75;5.50;;;;;;;1.18;55.40;102062.56;1710609;82;20973;-63
2021/11/11 02:40:57;;;;;;;14.60;5.80;;;;;;;1.13;55.67;102061.21;1711798;83;20913;-64
2021/11/11 02:43:25;;;;;;;10.28;6.08;;;;;;;1.11;55.94;102055.22;1710003;82;20987;-64
2021/11/11 02:45:52;;;;;;;10.05;5.55;;;;;;;1.09;56.07;102056.66;1710463;82;21167;-64
2021/11/11 02:48:22;;;;;;;11.57;5.65;;;;;;;1.11;56.23;102053.41;1712756;82;21485;-63
2021/11/11 02:50:52;;;;;;;12.47;5.60;;;;;;;1.11;56.33;102044.16;1711911;83;20937;-64
2021/11/11 02:53:18;;;;;;;8.53;5.08;;;;;;;1.11;56.45;102035.41;1711751;82;21028;-63
2021/11/11 02:55:46;;;;;;;10.23;5.55;;;;;;;1.10;56.61;102042.95;1711344;82;20991;-67
2021/11/11 02:58:15;;;;;;;10.90;4.97;;;;;;;1.07;56.76;102037.41;1709533;83;27193;-68
2021/11/11 03:00:56;;;;;;;9.05;5.60;;;;;;;1.05;56.90;102036.20;1711192;82;21028;-63
2021/11/11 03:03:25;;;;;;;11.95;5.80;;;;;;;1.04;57.02;102035.00;1712773;82;21001;-65
2021/11/11 03:05:52;;;;;;;8.80;5.00;;;;;;;1.03;57.14;102035.49;1711294;83;21017;-64
2021/11/11 03:08:21;;;;;;;9.18;5.12;;;;;;;1.03;57.15;102040.77;1709623;83;20977;-66
2021/11/11 03:10:50;;;;;;;10.63;5.70;;;;;;;1.04;57.19;102040.29;1712869;83;21566;-66
2021/11/11 03:13:18;;;;;;;10.03;5.50;;;;;;;1.05;57.17;102029.61;1710036;82;21541;-64
2021/11/11 03:15:46;;;;;;;10.60;4.83;;;;;;;1.05;57.22;102028.28;1711725;83;21080;-64
2021/11/11 03:18:14;;;;;;;8.08;4.72;;;;;;;1.03;57.20;102030.67;1711567;82;21032;-66
2021/11/11 03:20:40;;;;;;;10.15;4.83;;;;;;;1.00;57.30;102026.94;1711733;82;21526;-67
2021/11/11 03:23:07;;;;;;;7.22;4.40;;;;;;;0.96;57.38;102022.87;1710665;83;21064;-71
2021/11/11 03:25:34;;;;;;;9.28;4.80;;;;;;;0.92;57.45;102023.55;1709698;82;20914;-68
2021/11/11 03:28:01;;;;;;;8.53;4.85;;;;;;;0.90;57.57;102020.66;1711672;82;20997;-65
2021/11/11 03:30:30;;;;;;;11.05;5.35;;;;;;;0.88;57.64;102020.77;1713325;82;21563;-64
2021/11/11 03:32:59;;;;;;;8.95;4.40;;;;;;;0.86;57.70;102018.73;1708462;83;21550;-65
2021/11/11 03:35:27;;;;;;;10.88;4.92;;;;;;;0.86;57.71;102005.05;1711957;82;21123;-68
2021/11/11 03:37:56;;;;;;;10.32;5.00;;;;;;;0.87;57.72;102006.74;1714999;82;20889;-64
2021/11/11 03:40:26;;;;;;;7.78;4.30;;;;;;;0.88;57.69;102003.61;1711806;82;20933;-64
2021/11/11 03:42:54;;;;;;;9.40;4.80;;;;;;;0.89;57.73;102000.02;1712157;82;20945;-64
2021/11/11 03:45:22;;;;;;;10.95;5.17;;;;;;;0.90;57.71;101993.80;1711870;83;21024;-66
2021/11/11 03:47:50;;;;;;;13.22;5.15;;;;;;;0.89;57.68;101985.50;1711458;82;20933;-65
2021/11/11 03:50:17;;;;;;;8.45;4.92;;;;;;;0.87;57.68;101984.30;1711441;82;21502;-70
2021/11/11 03:52:45;;;;;;;8.85;4.65;;;;;;;0.87;57.70;101986.94;1711652;82;21585;-72
2021/11/11 03:55:13;;;;;;;;;;;;;;;0.87;57.71;101989.58;1713893;83;21012;-62
2021/11/11 03:57:41;;;;;;;8.03;4.75;;;;;;;0.87;57.74;101990.89;1710857;82;20451;-64
2021/11/11 04:00:11;;;;;;;9.93;4.80;;;;;;;0.88;57.74;101991.73;1708877;82;21235;-69
2021/11/11 04:02:41;;;;;;;10.98;5.10;;;;;;;0.91;57.83;101988.02;1715419;82;20980;-62
2021/11/11 04:05:09;;;;;;;6.80;4.58;;;;;;;0.97;57.74;101982.27;1717204;82;21589;-67
2021/11/11 04:07:37;;;;;;;11.83;5.28;;;;;;;1.04;57.62;101971.12;1718614;82;20889;-63
2021/11/11 04:10:05;;;;;;;14.80;5.58;;;;;;;1.12;57.36;101968.38;1718536;82;21008;-62
2021/11/11 04:12:34;;;;;;;10.48;5.25;;;;;;;1.17;57.26;101970.20;1668909;85;21064;-67
2021/11/11 04:15:00;;;;;;;13.38;5.60;;;;;;;1.23;57.00;101973.20;1664776;85;20988;-67
2021/11/11 04:17:28;;;;;;;10.25;5.83;;;;;;;1.22;56.94;101970.22;1663284;84;21044;-67
2021/11/11 04:19:55;;;;;;;13.05;6.53;;;;;;;1.25;56.88;101965.64;1667236;85;21419;-66
2021/11/11 04:22:22;;;;;;;11.55;5.97;;;;;;;1.29;56.80;101963.97;1667147;85;21024;-68
2021/11/11 04:24:51;;;;;;;9.28;5.78;;;;;;;1.30;56.70;101963.02;1664281;85;22034;-67
2021/11/11 04:27:24;;;;;;;12.98;6.60;;;;;;;1.32;56.64;101958.44;1665535;85;20995;-65
2021/11/11 04:30:06;;;;;;;11.33;6.20;;;;;;;1.36;56.53;101955.09;1663889;85;21093;-65
2021/11/11 04:32:23;;;;;;;9.83;5.92;;;;;;;1.35;56.36;101951.59;1665748;85;21514;-66
2021/11/11 04:34:55;;;;;;;9.08;5.33;;;;;;;1.31;56.26;101954.14;1662343;85;21020;-65
2021/11/11 04:37:30;;;;;;;9.00;4.95;;;;;;;1.21;56.42;101953.99;1666242;85;21876;-65
2021/11/11 04:48:03;;;;;;;8.05;4.10;;;;;;;1.09;57.20;101949.66;1665526;84;21081;-63
2021/11/11 05:01:28;;;;;;;7.50;3.80;;;;;;;1.07;57.62;101950.23;1665389;85;20969;-61
2021/11/11 05:03:52;;;;;;;8.60;3.90;;;;;;;1.11;57.44;101946.91;1664450;84;21796;-62
2021/11/11 05:06:19;;;;;;;10.68;3.92;;;;;;;1.09;57.41;101947.02;1668276;85;21084;-62
2021/11/11 05:08:47;;;;;;;6.67;3.60;;;;;;;1.07;57.51;101952.88;1666596;85;21609;-63
2021/11/11 05:11:14;;;;;;;6.10;3.67;;;;;;;1.04;57.59;101951.31;1671331;85;21060;-62
2021/11/11 05:13:42;;;;;;;9.58;3.65;;;;;;;1.02;57.69;101943.16;1667060;85;21076;-63
2021/11/11 05:16:11;;;;;;;5.92;3.20;;;;;;;1.00;57.84;101947.70;1666774;85;21641;-63
2021/11/11 05:18:39;;;;;;;7.03;4.03;;;;;;;0.94;58.07;101941.57;1666804;85;21031;-62
2021/11/11 05:21:06;;;;;;;5.95;3.40;;;;;;;0.90;58.19;101943.62;1665999;85;20920;-63
2021/11/11 05:23:34;;;;;;;8.13;3.30;;;;;;;0.90;58.37;101954.64;1666417;85;20976;-68
2021/11/11 05:26:01;;;;;;;6.12;3.42;;;;;;;1.04;58.41;101943.88;1668565;85;20975;-71
2021/11/11 05:28:27;;;;;;;7.03;3.20;;;;;;;1.35;58.02;101949.44;1666843;85;21500;-63
2021/11/11 05:30:55;;;;;;;6.22;3.05;;;;;;;1.82;57.19;101945.36;1667576;85;21094;-70
2021/11/11 05:33:23;;;;;;;8.05;3.10;;;;;;;2.35;56.40;101949.44;1664747;85;21487;-66
2021/11/11 05:35:50;;;;;;;7.55;3.52;;;;;;;2.81;55.32;101948.75;1666500;85;21577;-66
2021/11/11 05:38:17;;;;;;;5.03;3.27;;;;;;;3.20;54.50;101945.04;1667550;85;21035;-65
2021/11/11 05:40:44;;;;;;;7.17;3.55;;;;;;;3.77;52.93;101932.17;1667537;85;21163;-65
2021/11/11 05:43:11;;;;;;;8.30;4.00;;;;;;;4.51;50.92;101928.21;1667754;85;21490;-64
2021/11/11 05:45:38;;;;;;;5.17;3.35;;;;;;;5.28;49.43;101935.37;1667037;85;21075;-64
2021/11/11 05:48:05;;;;;;;4.37;2.70;;;;;;;6.00;47.73;101930.31;1670333;85;21074;-67
2021/11/11 05:50:34;;;;;;;7.42;3.25;;;;;;;6.71;46.18;101931.30;1665489;85;21095;-70
2021/11/11 05:53:01;;;;;;;4.65;2.90;;;;;;;7.37;44.94;101921.39;1666243;85;21144;-71
2021/11/11 05:55:28;;;;;;;7.12;2.87;;;;;;;8.00;42.98;101921.97;1666855;85;21012;-72
2021/11/11 05:57:55;;;;;;;5.75;3.35;;;;;;;8.51;41.95;101909.89;1667390;85;21454;-67
2021/11/11 06:00:22;;;;;;;4.10;3.02;;;;;;;8.95;40.82;101911.34;1666738;85;20972;-70
2021/11/11 06:02:52;;;;;;;4.67;2.45;;;;;;;9.27;39.78;101913.62;1666743;85;21044;-66
2021/11/11 06:05:20;;;;;;;9.65;2.87;;;;;;;9.45;38.79;101909.38;1667392;85;21175;-63
2021/11/11 06:07:49;;;;;;;;;;;;;;;9.36;39.01;101917.12;1670105;85;21580;-70
2021/11/11 06:10:16;;;;;;;5.58;3.27;;;;;;;9.09;39.23;101914.67;1672903;84;20250;-74
2021/11/11 06:12:44;;;;;;;5.37;3.00;;;;;;;8.68;39.59;101908.04;1667479;85;21015;-71
2021/11/11 06:15:12;;;;;;;10.10;3.00;;;;;;;8.22;40.33;101904.48;1667536;85;21490;-70
2021/11/11 06:17:41;;;;;;;4.67;3.45;;;;;;;7.69;41.64;101901.70;1667422;85;21041;-69
2021/11/11 06:20:20;;;;;;;8.15;3.15;;;;;;;7.29;42.64;101894.69;1666095;85;20984;-70
2021/11/11 06:22:45;;;;;;;4.70;3.33;;;;;;;6.89;43.52;101896.61;1667006;85;21034;-72
2021/11/11 06:25:14;;;;;;;7.83;3.52;;;;;;;6.49;44.25;101899.66;1647080;85;21094;-69
2021/11/11 06:27:43;;;;;;;6.08;2.90;;;;;;;6.15;45.17;101904.83;1666659;85;21015;-60
2021/11/11 06:30:11;;;;;;;5.60;2.65;;;;;;;5.88;46.19;101906.52;1663628;85;21144;-67
2021/11/11 06:32:38;;;;;;;6.67;3.33;;;;;;;5.67;46.52;101909.45;1665630;85;21593;-68
2021/11/11 06:35:07;;;;;;;9.00;3.08;;;;;;;5.55;47.29;101903.95;1667029;85;20984;-61
2021/11/11 06:37:37;;;;;;;5.78;3.95;;;;;;;5.43;47.25;101906.83;1663726;85;21047;-60
2021/11/11 06:40:06;;;;;;;5.92;3.52;;;;;;;5.31;48.11;101905.32;1665478;85;21114;-62
2021/11/11 06:42:33;;;;;;;5.17;3.00;;;;;;;5.17;48.13;101897.84;1662409;85;21139;-62
2021/11/11 06:44:59;;;;;;;6.70;3.40;;;;;;;5.04;48.70;101896.82;1665221;85;21522;-61
2021/11/11 06:50:43;;;;;;;6.33;3.17;;;;;;;4.84;49.09;101900.83;1664785;83;21036;-61
2021/11/11 06:53:11;;;;;;;8.18;3.33;;;;;;;4.78;49.32;101898.75;1663514;85;21087;-60
2021/11/11 06:55:39;;;;;;;8.25;3.37;;;;;;;4.83;49.29;101900.98;1664117;85;22220;-61
2021/11/11 06:58:06;;;;;;;6.03;3.65;;;;;;;4.79;49.37;101899.11;1666867;85;20953;-60
2021/11/11 07:00:33;;;;;;;6.92;3.52;;;;;;;4.68;49.51;101893.47;1664906;83;21063;-62
2021/11/11 07:03:00;;;;;;;4.20;2.90;;;;;;;4.65;49.73;101889.77;1669881;83;21052;-61
2021/11/11 07:05:27;;;;;;;5.83;2.98;;;;;;;4.73;49.75;101887.22;1659375;85;21120;-59
2021/11/11 07:07:54;;;;;;;6.45;3.58;;;;;;;4.87;49.58;101885.95;1656784;85;21116;-59
2021/11/11 07:10:20;;;;;;;4.12;2.85;;;;;;;5.02;49.13;101878.36;1655032;84;21525;-61
2021/11/11 07:12:49;;;;;;;4.10;2.83;;;;;;;5.05;49.22;101886.05;1654219;85;21056;-59
2021/11/11 07:15:15;;;;;;;4.67;2.98;;;;;;;5.03;49.22;101887.16;1656215;85;21128;-60
2021/11/11 07:17:42;;;;;;;5.60;3.12;;;;;;;5.12;49.14;101884.95;1655954;85;21083;-60
2021/11/11 07:20:13;;;;;;;9.45;3.20;;;;;;;5.24;48.99;101882.95;1710553;82;21161;-61
2021/11/11 07:22:42;;;;;;;7.53;3.37;;;;;;;5.34;48.60;101875.77;1716460;82;20929;-60
2021/11/11 07:25:10;;;;;;;8.13;3.77;;;;;;;5.42;48.51;101886.53;1712685;82;20981;-60
2021/11/11 07:27:37;;;;;;;5.85;3.30;;;;;;;5.52;47.96;101878.52;1713660;81;21505;-60
2021/11/11 07:30:14;;;;;;;6.85;3.98;;;;;;;5.65;48.12;101874.66;1706538;82;21554;-61
2021/11/11 07:32:41;;;;;;;12.58;3.40;;;;;;;5.78;47.30;101869.30;1717591;81;21114;-59
2021/11/11 07:35:09;;;;;;;4.35;2.75;;;;;;;5.83;46.75;101864.89;1710526;82;21542;-61
2021/11/11 07:37:39;;;;;;;8.85;3.98;;;;;;;5.90;46.95;101861.97;1709791;82;20949;-59
2021/11/11 07:40:06;;;;;;;6.83;3.35;;;;;;;5.99;46.32;101850.91;1714170;82;21589;-60
2021/11/11 07:42:34;;;;;;;9.30;3.42;;;;;;;6.04;46.41;101859.80;1709412;82;21005;-60
2021/11/11 07:45:01;;;;;;;8.20;3.80;;;;;;;6.09;46.06;101855.67;1711658;83;21145;-60
2021/11/11 07:47:28;;;;;;;6.28;3.33;;;;;;;6.12;45.82;101847.41;1710555;82;20999;-60
2021/11/11 07:53:25;;;;;;;9.63;3.10;;;;;;;6.26;45.63;101847.34;1713145;81;20913;-60
2021/11/11 07:59:23;;;;;;;5.75;3.08;;;;;;;6.37;45.42;101831.61;1712339;83;20992;-59
2021/11/11 08:08:40;;;;;;;7.15;2.92;;;;;;;6.52;44.95;101805.74;1720962;82;21012;-60
2021/11/11 08:11:07;;;;;;;5.35;3.12;;;;;;;6.62;44.85;101796.64;1727432;81;20998;-61
2021/11/11 08:13:33;;;;;;;6.83;3.15;;;;;;;6.71;44.65;101798.04;1719453;82;21780;-60
2021/11/11 08:16:00;;;;;;;5.97;3.37;;;;;;;6.79;44.24;101803.43;1715993;82;21442;-60
2021/11/11 08:18:27;;;;;;;6.15;3.22;;;;;;;6.87;44.35;101817.30;1719664;82;21537;-60
2021/11/11 08:20:54;;;;;;;6.90;3.40;;;;;;;6.99;44.60;101804.02;1719933;82;21096;-59
2021/11/11 08:23:22;;;;;;;8.75;3.37;;;;;;;7.12;44.11;101799.07;1717720;82;20992;-59
2021/11/11 08:25:49;;;;;;;9.35;3.47;;;;;;;7.18;43.85;101797.13;1716384;82;21135;-60
2021/11/11 08:28:19;;;;;;;11.28;3.12;;;;;;;7.21;43.72;101788.45;1717691;82;20932;-61
2021/11/11 08:30:46;;;;;;;11.28;3.42;;;;;;;7.24;43.88;101782.78;1718481;82;21743;-59
2021/11/11 08:33:14;;;;;;;;;;;;;;;7.27;43.83;101790.47;1734448;81;21015;-60
2021/11/11 08:35:43;;;;;;;7.35;3.33;;;;;;;7.29;43.83;101782.64;1719747;81;20136;-59
2021/11/11 08:38:10;;;;;;;17.07;3.83;;;;;;;7.31;43.79;101775.81;1716807;82;21177;-61
2021/11/11 08:40:37;;;;;;;6.40;3.52;;;;;;;7.37;43.61;101777.83;1718211;82;21105;-61
2021/11/11 08:43:05;;;;;;;8.00;3.90;;;;;;;7.43;43.73;101767.00;1722835;82;20936;-62
2021/11/11 08:45:33;;;;;;;5.20;3.20;;;;;;;7.47;43.77;101771.84;1718964;82;21098;-60
2021/11/11 08:48:01;;;;;;;5.60;3.10;;;;;;;7.47;43.89;101765.69;1719015;82;20956;-61
2021/11/11 08:50:31;;;;;;;6.83;3.70;;;;;;;7.51;43.97;101769.70;1718442;82;21179;-60
2021/11/11 08:53:01;;;;;;;8.83;3.25;;;;;;;7.50;43.97;101777.37;1719780;82;20980;-59
2021/11/11 08:55:30;;;;;;;6.17;3.40;;;;;;;7.46;44.04;101766.67;1717033;82;21003;-61
2021/11/11 08:57:58;;;;;;;9.25;3.77;;;;;;;7.47;44.13;101764.35;1717596;82;20968;-60
2021/11/11 09:00:30;;;;;;;9.88;3.80;;;;;;;7.51;44.19;101765.19;1721688;82;20999;-61
2021/11/11 09:03:00;;;;;;;10.40;3.45;;;;;;;7.54;44.13;101760.03;1721399;82;21824;-61
2021/11/11 09:05:31;;;;;;;5.70;3.27;;;;;;;7.59;44.41;101760.87;1721620;82;20971;-62
2021/11/11 09:07:56;;;;;;;6.15;3.47;;;;;;;7.65;44.52;101748.20;1720511;82;21027;-59
2021/11/11 09:10:24;;;;;;;8.97;3.80;;;;;;;7.68;44.06;101763.88;1718790;82;21717;-60
2021/11/11 09:12:52;;;;;;;9.30;3.87;;;;;;;7.67;44.46;101764.39;1716318;82;21717;-60
2021/11/11 09:15:22;;;;;;;6.75;3.87;;;;;;;7.76;44.32;101759.04;1718692;82;21117;-60
2021/11/11 09:17:52;;;;;;;8.73;3.75;;;;;;;7.79;44.23;101754.70;1717267;82;21561;-60
2021/11/11 09:20:19;;;;;;;5.65;3.42;;;;;;;7.74;44.32;101761.88;1719735;82;20980;-60
2021/11/11 09:22:47;;;;;;;7.65;3.75;;;;;;;7.75;44.27;101760.06;1720048;81;21014;-62
2021/11/11 09:25:14;;;;;;;7.40;4.08;;;;;;;7.77;44.57;101751.38;1718733;82;20992;-61
2021/11/11 09:27:41;;;;;;;10.05;4.00;;;;;;;7.78;44.17;101743.71;1734922;81;22141;-61
2021/11/11 09:30:13;;;;;;;5.35;3.12;;;;;;;7.76;44.59;101752.37;1729807;81;21087;-60
2021/11/11 09:32:40;;;;;;;9.13;3.77;;;;;;;7.80;44.77;101745.70;1721573;81;21043;-63
2021/11/11 09:35:08;;;;;;;;;;;;;;;7.84;44.64;101737.19;1720148;82;20999;-61
2021/11/11 09:37:36;;;;;;;6.83;4.17;;;;;;;7.83;44.56;101731.53;1715623;82;20492;-63
2021/11/11 09:40:09;;;;;;;11.57;3.70;;;;;;;7.75;44.72;101725.36;1718989;82;21145;-60
2021/11/11 09:42:37;;;;;;;8.20;3.70;;;;;;;7.60;45.11;101726.01;1720738;82;20858;-62
2021/11/11 09:45:07;;;;;;;7.27;3.30;;;;;;;7.53;45.56;101721.81;1721074;82;21047;-63
2021/11/11 09:47:33;;;;;;;;;;;;;;;7.53;45.59;101726.33;1718924;82;21623;-60
2021/11/11 09:50:02;;;;;;;9.40;3.60;;;;;;;7.55;45.59;101708.30;1715524;82;20149;-61
2021/11/11 09:52:29;;;;;;;9.48;3.60;;;;;;;7.57;45.61;101710.33;1720238;82;21115;-61
2021/11/11 10:00:27;;;;;;;12.25;4.20;;;;;;;7.72;45.72;101702.49;1718806;82;21577;-60
2021/11/11 10:02:54;;;;;;;6.85;3.77;;;;;;;7.71;45.52;101692.33;1717743;82;21000;-61
2021/11/11 10:05:22;;;;;;;10.20;3.72;;;;;;;7.66;45.52;101687.15;1720281;82;21183;-62
2021/11/11 10:07:49;;;;;;;6.62;4.10;;;;;;;7.59;46.03;101689.63;1721823;82;21557;-61
2021/11/11 10:10:37;;;;;;;12.60;4.72;;;;;;;7.61;45.86;101676.12;1727610;82;21542;-61
2021/11/11 10:13:15;;;;;;;6.65;3.30;;;;;;;7.61;46.09;101675.64;1723185;82;21075;-60
2021/11/11 10:16:09;;;;;;;6.72;3.65;;;;;;;7.60;46.13;101665.13;1722112;82;21586;-59
2021/11/11 10:18:51;;;;;;;9.40;3.50;;;;;;;7.60;46.21;101667.29;1722770;82;21160;-61
2021/11/11 10:21:38;;;;;;;8.48;3.70;;;;;;;7.63;46.13;101655.45;1719280;82;21042;-59
2021/11/11 10:24:21;;;;;;;11.83;3.60;;;;;;;7.66;46.29;101648.45;1722248;82;20905;-60
2021/11/11 10:27:02;;;;;;;8.83;3.30;;;;;;;7.68;45.98;101643.25;1718256;82;20960;-62
2021/11/11 10:29:49;;;;;;;7.80;3.30;;;;;;;7.69;46.21;101636.09;1716728;82;21031;-60
2021/11/11 10:32:36;;;;;;;6.72;3.12;;;;;;;7.68;45.90;101623.74;1718326;82;21122;-59
2021/11/11 10:35:18;;;;;;;10.93;3.65;;;;;;;7.66;46.23;101623.09;1719519;82;21023;-60
2021/11/11 10:37:57;;;;;;;6.90;3.60;;;;;;;7.67;46.13;101617.58;1718804;82;20987;-59
2021/11/11 10:40:41;;;;;;;8.65;3.50;;;;;;;7.69;45.94;101602.22;1718386;82;21043;-60
2021/11/11 10:43:15;;;;;;;7.83;3.67;;;;;;;7.68;45.78;101607.73;1717428;82;20952;-65
2021/11/11 10:45:45;;;;;;;8.50;3.67;;;;;;;7.65;46.01;101600.88;1716906;82;21107;-59
2021/11/11 10:48:15;;;;;;;7.00;3.55;;;;;;;7.65;46.36;101591.55;1719942;82;20999;-61
2021/11/11 10:50:50;;;;;;;9.00;3.60;;;;;;;7.67;46.34;101592.22;1718816;82;20996;-60
2021/11/11 10:53:24;;;;;;;6.62;3.35;;;;;;;7.67;46.00;101582.88;1718496;82;21898;-59
2021/11/11 10:55:55;;;;;;;7.22;3.58;;;;;;;7.69;46.14;101584.05;1719137;82;21078;-60
2021/11/11 10:58:25;;;;;;;5.75;3.08;;;;;;;7.69;45.64;101575.52;1718953;82;21126;-59
2021/11/11 11:00:56;;;;;;;6.30;3.20;;;;;;;7.70;45.96;101568.38;1717379;82;20991;-62
2021/11/11 11:03:45;;;;;;;7.70;3.20;;;;;;;7.76;45.75;101561.49;1717390;82;20967;-59
2021/11/11 11:06:15;;;;;;;6.25;3.12;;;;;;;7.82;45.58;101567.51;1720912;82;20928;-60
2021/11/11 11:08:56;;;;;;;5.58;3.30;;;;;;;7.84;45.37;101566.31;1708460;83;20972;-58
2021/11/11 11:11:44;;;;;;;7.15;3.00;;;;;;;7.84;45.15;101562.82;1708440;82;20929;-61
2021/11/11 11:14:23;;;;;;;4.85;3.15;;;;;;;7.84;45.22;101544.13;1713030;83;20984;-59
2021/11/11 11:16:50;;;;;;;6.92;2.95;;;;;;;7.83;45.52;101543.80;1711001;83;21087;-60
2021/11/11 11:19:17;;;;;;;5.87;3.00;;;;;;;7.85;44.90;101527.94;1711167;83;21016;-59
2021/11/11 11:21:53;;;;;;;11.55;3.47;;;;;;;7.86;45.04;101520.27;1710652;83;21502;-58
2021/11/11 11:24:24;;;;;;;11.25;3.40;;;;;;;7.89;45.27;101533.27;1711973;83;22193;-59
2021/11/11 11:26:55;;;;;;;8.43;2.75;;;;;;;7.93;44.89;101530.25;1707824;83;20984;-63
2021/11/11 11:29:29;;;;;;;9.40;3.70;;;;;;;7.90;44.97;101520.75;1712750;82;21604;-60
2021/11/11 11:32:18;;;;;;;6.15;3.22;;;;;;;7.84;45.05;101508.91;1710050;83;21427;-60
2021/11/11 11:34:48;;;;;;;5.00;3.30;;;;;;;7.81;45.05;101511.92;1710343;82;21060;-59
2021/11/11 11:37:24;;;;;;;10.20;3.77;;;;;;;7.82;45.17;101507.44;1711435;83;21174;-61
2021/11/11 11:39:57;;;;;;;7.33;3.25;;;;;;;7.86;44.60;101500.73;1693234;83;20945;-59
2021/11/11 11:42:30;;;;;;;7.45;3.30;;;;;;;7.92;44.58;101505.41;1710937;83;20905;-62
2021/11/11 11:45:06;;;;;;;5.97;3.22;;;;;;;7.95;44.50;101501.05;1711283;83;21468;-60
2021/11/11 11:47:46;;;;;;;5.10;2.83;;;;;;;7.95;44.73;101498.86;1712496;83;21447;-62
2021/11/11 11:50:28;;;;;;;7.03;3.55;;;;;;;7.98;44.73;101498.03;1714620;81;21553;-59
2021/11/11 11:53:04;;;;;;;5.15;2.83;;;;;;;8.02;44.94;101491.34;1708455;83;21044;-60
2021/11/11 11:55:40;;;;;;;6.80;3.47;;;;;;;8.07;45.13;101487.63;1708464;82;21064;-64
2021/11/11 12:06:38;;;;;;;9.53;3.80;;;;;;;8.15;45.03;101478.73;1711650;83;20973;-61
2021/11/11 12:14:30;;;;;;;7.08;3.00;;;;;;;8.10;44.70;101439.72;1703549;83;20984;-58
2021/11/11 12:40:08;;;;;;;8.83;3.12;;;;;;;7.97;45.64;101386.05;1717272;81;21000;-58
2021/11/11 12:42:52;;;;;;;5.20;3.27;;;;;;;7.94;45.71;101375.21;1708543;81;21606;-67
2021/11/11 12:45:21;;;;;;;4.80;3.15;;;;;;;7.93;45.77;101372.72;1711562;83;21230;-61
2021/11/11 12:48:14;;;;;;;8.00;3.15;;;;;;;7.94;45.84;101374.39;1709969;82;21609;-60
2021/11/11 12:50:55;;;;;;;6.37;3.22;;;;;;;7.93;45.87;101377.55;1714917;83;20964;-59
2021/11/11 12:53:24;;;;;;;7.42;4.37;;;;;;;7.89;46.04;101365.06;1678747;84;21107;-61
2021/11/11 12:56:09;;;;;;;6.47;3.52;;;;;;;7.89;46.25;101362.39;1657862;85;21065;-61
2021/11/11 12:58:57;;;;;;;7.12;3.67;;;;;;;7.88;46.48;101361.23;1711050;83;21085;-60
2021/11/11 13:01:36;;;;;;;13.25;4.00;;;;;;;7.84;46.55;101359.41;1707897;83;20981;-62
2021/11/11 13:04:09;;;;;;;8.70;4.10;;;;;;;7.82;46.77;101348.59;1677557;84;21482;-60